createdAt,value
2024-03-26T00:02:58.478Z,9.919463087248323
2024-03-26T00:06:45.448Z,9.12751677852349
2024-03-26T00:10:05.744Z,9.134228187919463
2024-03-26T00:13:26.435Z,9.85234899328859
2024-03-26T00:21:30.449Z,8.85234899328859
2024-03-26T00:24:50.703Z,10.765100671140939
2024-03-26T00:28:11.068Z,9.06711409395973
2024-03-26T00:31:31.226Z,9.838926174496644
2024-03-26T00:34:50.924Z,10.315436241610739
2024-03-26T00:38:10.959Z,10.342281879194632
2024-03-26T00:43:28.889Z,10.114093959731544
2024-03-26T00:46:48.333Z,8.865771812080537
2024-03-26T00:51:15.665Z,10.543624161073826
2024-03-26T00:54:36.023Z,9.328859060402685
2024-03-26T00:57:55.995Z,10.221476510067115
2024-03-26T01:01:15.969Z,8.46979865771812
2024-03-26T01:04:36.210Z,7.684563758389261
2024-03-26T01:15:10.494Z,8.476510067114093
2024-03-26T01:18:30.637Z,9.093959731543624
2024-03-26T01:29:01.869Z,7.97986577181208
2024-03-26T01:32:21.804Z,9.604026845637584
2024-03-26T01:37:35.155Z,9.483221476510067
2024-03-26T01:40:55.237Z,8.93288590604027
2024-03-26T01:44:15.480Z,7.76510067114094
2024-03-26T01:47:35.602Z,8.181208053691275
2024-03-26T01:50:55.427Z,7.657718120805369
2024-03-26T01:54:15.507Z,7.704697986577181
2024-03-26T01:57:36.141Z,8.060402684563758
2024-03-26T02:00:56.424Z,8.536912751677852
2024-03-26T02:04:16.168Z,10.885906040268456
2024-03-26T02:07:36.100Z,8.342281879194632
2024-03-26T02:10:56.199Z,8.395973154362416
2024-03-26T02:14:15.851Z,8.859060402684564
2024-03-26T02:18:42.432Z,8.429530201342281
2024-03-26T02:22:02.710Z,8.36241610738255
2024-03-26T02:25:22.347Z,8.691275167785236
2024-03-26T02:28:42.423Z,8.503355704697986
2024-03-26T02:32:01.859Z,7.409395973154362
2024-03-26T02:35:21.737Z,9.21476510067114
2024-03-26T02:38:42.092Z,8.389261744966444
2024-03-26T02:44:06.393Z,9.449664429530202
2024-03-26T02:47:26.425Z,9.080536912751677
2024-03-26T02:50:46.435Z,8.805369127516778
2024-03-26T02:54:06.053Z,9.557046979865772
2024-03-26T02:57:26.418Z,8.791946308724832
2024-03-26T03:00:47.006Z,9.691275167785236
2024-03-26T03:04:07.191Z,10.134228187919463
2024-03-26T03:07:26.905Z,9.624161073825503
2024-03-26T03:10:46.682Z,8.973154362416107
2024-03-26T03:16:40.758Z,9.36241610738255
2024-03-26T03:22:42.216Z,10.355704697986576
2024-03-26T03:26:02.045Z,11.543624161073826
2024-03-26T03:29:21.826Z,12.919463087248323
2024-03-26T03:32:42.376Z,9.798657718120806
2024-03-26T03:36:02.256Z,13.288590604026846
2024-03-26T03:39:22.347Z,12.523489932885907
2024-03-26T03:45:03.587Z,13.583892617449665
2024-03-26T03:50:55.599Z,14.429530201342281
2024-03-26T03:54:15.388Z,12.818791946308725
2024-03-26T03:57:35.225Z,12.87248322147651
2024-03-26T04:00:55.115Z,13.791946308724832
2024-03-26T04:04:15.262Z,12.51006711409396
2024-03-26T04:07:35.833Z,14.409395973154362
2024-03-26T04:10:56.198Z,13.986577181208053
2024-03-26T04:14:16.668Z,13.926174496644295
2024-03-26T04:30:29.892Z,13.483221476510067
2024-03-26T04:33:49.715Z,13.375838926174497
2024-03-26T04:37:09.275Z,11.651006711409396
2024-03-26T04:45:28.878Z,11.859060402684564
2024-03-26T04:48:48.926Z,11.476510067114093
2024-03-26T04:52:08.588Z,10.832214765100671
2024-03-26T04:55:28.650Z,10.355704697986576
2024-03-26T04:58:49.000Z,9.879194630872483
2024-03-26T05:02:09.190Z,11.020134228187919
2024-03-26T05:05:29.640Z,12.14765100671141
2024-03-26T05:08:49.649Z,9.583892617449665
2024-03-26T05:12:08.733Z,10.060402684563758
2024-03-26T05:15:29.632Z,9.697986577181208
2024-03-26T05:18:49.593Z,8.523489932885907
2024-03-26T05:22:10.079Z,9.033557046979865
2024-03-26T05:27:21.893Z,9.026845637583893
2024-03-26T05:30:42.161Z,8.691275167785236
2024-03-26T05:34:03.520Z,10.093959731543624
2024-03-26T05:39:45.552Z,9.825503355704697
2024-03-26T05:47:48.277Z,7.89261744966443
2024-03-26T05:51:07.505Z,8.845637583892618
2024-03-26T05:54:27.237Z,7.1879194630872485
2024-03-26T05:57:47.214Z,8.228187919463087
2024-03-26T06:01:07.164Z,7.624161073825503
2024-03-26T06:04:27.449Z,8.261744966442953
2024-03-26T06:07:47.385Z,8.496644295302014
2024-03-26T06:11:07.547Z,7.953020134228188
2024-03-26T06:14:28.353Z,8.046979865771812
2024-03-26T06:17:48.314Z,7.738255033557047
2024-03-26T06:22:28.310Z,8.221476510067115
2024-03-26T06:25:48.277Z,9.154362416107382
2024-03-26T06:29:08.209Z,9.288590604026846
2024-03-26T06:36:43.599Z,9.0
2024-03-26T06:42:57.939Z,7.87248322147651
2024-03-26T06:48:59.068Z,9.845637583892618
2024-03-26T06:52:20.608Z,7.12751677852349
2024-03-26T06:56:25.577Z,8.53020134228188
2024-03-26T06:59:45.824Z,7.3624161073825505
2024-03-26T07:03:05.778Z,8.570469798657719
2024-03-26T07:06:26.242Z,7.248322147651007
2024-03-26T07:09:47.295Z,7.174496644295302
2024-03-26T07:13:06.629Z,8.798657718120806
2024-03-26T07:16:41.569Z,8.288590604026846
2024-03-26T07:28:34.899Z,8.711409395973154
2024-03-26T07:52:21.906Z,7.174496644295302
2024-03-26T07:55:42.082Z,7.503355704697986
2024-03-26T08:02:18.399Z,7.046979865771812
2024-03-26T08:07:45.603Z,6.610738255033557
2024-03-26T08:11:05.234Z,6.02013422818792
2024-03-26T08:16:43.947Z,6.771812080536913
2024-03-26T08:20:03.699Z,7.194630872483222
2024-03-26T08:23:23.840Z,4.684563758389261
2024-03-26T08:26:43.927Z,4.97986577181208
2024-03-26T08:30:05.446Z,6.7114093959731544
2024-03-26T08:33:25.966Z,6.375838926174497
2024-03-26T08:36:45.758Z,6.02013422818792
2024-03-26T08:40:06.147Z,6.610738255033557
2024-03-26T08:43:26.182Z,6.375838926174497
2024-03-26T08:46:46.475Z,6.120805369127517
2024-03-26T08:50:06.827Z,5.295302013422819
2024-03-26T08:53:27.504Z,5.208053691275167
2024-03-26T08:56:47.483Z,5.114093959731544
2024-03-26T09:00:07.112Z,5.630872483221476
2024-03-26T09:03:26.493Z,5.436241610738255
2024-03-26T09:06:46.029Z,6.087248322147651
2024-03-26T09:12:09.807Z,5.630872483221476
2024-03-26T09:15:30.169Z,6.174496644295302
2024-03-26T09:18:50.147Z,6.087248322147651
2024-03-26T09:22:09.917Z,5.899328859060403
2024-03-26T09:27:40.852Z,6.006711409395973
2024-03-26T09:31:00.822Z,6.523489932885906
2024-03-26T09:37:47.680Z,6.583892617449664
2024-03-26T09:41:07.961Z,5.845637583892618
2024-03-26T09:44:27.644Z,6.516778523489933
2024-03-26T09:47:47.559Z,5.771812080536913
2024-03-26T09:51:07.314Z,6.060402684563758
2024-03-26T09:54:27.290Z,5.469798657718121
2024-03-26T09:59:45.106Z,5.74496644295302
2024-03-26T10:03:04.998Z,6.241610738255034
2024-03-26T10:06:25.368Z,5.147651006711409
2024-03-26T10:09:45.813Z,5.785234899328859
2024-03-26T10:15:51.354Z,6.154362416107382
2024-03-26T10:19:10.685Z,5.751677852348993
2024-03-26T10:22:30.688Z,5.422818791946309
2024-03-26T10:25:49.913Z,5.510067114093959
2024-03-26T10:29:10.909Z,6.033557046979865
2024-03-26T10:32:32.649Z,5.583892617449664
2024-03-26T10:35:52.444Z,5.657718120805369
2024-03-26T10:39:12.157Z,5.76510067114094
2024-03-26T10:46:17.143Z,4.7114093959731544
2024-03-26T11:02:10.475Z,5.657718120805369
2024-03-26T11:05:30.700Z,5.899328859060403
2024-03-26T11:09:46.643Z,5.6644295302013425
2024-03-26T11:13:05.971Z,5.557046979865772
2024-03-26T11:17:25.472Z,6.442953020134228
2024-03-26T11:22:51.741Z,5.308724832214765
2024-03-26T11:28:09.274Z,5.885906040268456
2024-03-26T11:31:29.874Z,6.087248322147651
2024-03-26T11:34:49.941Z,6.697986577181208
2024-03-26T11:38:18.864Z,8.013422818791947
2024-03-26T11:41:39.192Z,7.6375838926174495
2024-03-26T11:44:59.750Z,6.97986577181208
2024-03-26T11:48:19.695Z,7.322147651006712
2024-03-26T11:51:42.155Z,7.489932885906041
2024-03-26T11:55:03.406Z,8.422818791946309
2024-03-26T11:58:23.480Z,7.1879194630872485
2024-03-26T12:01:43.634Z,7.590604026845638
2024-03-26T12:05:03.482Z,8.140939597315436
2024-03-26T12:08:23.835Z,8.51006711409396
2024-03-26T12:13:10.812Z,7.476510067114094
2024-03-26T12:16:34.316Z,8.61744966442953
2024-03-26T12:30:28.233Z,9.06711409395973
2024-03-26T12:33:48.032Z,9.557046979865772
2024-03-26T12:37:07.949Z,8.758389261744966
2024-03-26T12:40:28.953Z,8.241610738255034
2024-03-26T12:43:48.790Z,9.476510067114093
2024-03-26T12:47:08.647Z,7.993288590604027
2024-03-26T12:50:28.910Z,8.51006711409396
2024-03-26T12:53:48.872Z,8.442953020134228
2024-03-26T12:57:08.076Z,7.751677852348993
2024-03-26T13:00:27.765Z,8.89261744966443
2024-03-26T13:03:47.422Z,7.845637583892618
2024-03-26T13:07:07.275Z,8.395973154362416
2024-03-26T13:10:27.976Z,7.583892617449664
2024-03-26T13:13:50.037Z,7.120805369127517
2024-03-26T13:17:11.056Z,7.731543624161074
2024-03-26T13:20:31.197Z,7.12751677852349
2024-03-26T13:23:51.304Z,7.268456375838926
2024-03-26T13:27:11.562Z,8.63758389261745
2024-03-26T13:30:37.982Z,8.087248322147651
2024-03-26T13:36:18.066Z,8.610738255033556
2024-03-26T13:39:37.958Z,7.704697986577181
2024-03-26T13:42:58.341Z,7.87248322147651
2024-03-26T13:46:18.305Z,6.718120805369128
2024-03-26T13:49:38.683Z,8.583892617449665
2024-03-26T13:53:51.590Z,7.87248322147651
2024-03-26T13:57:12.213Z,7.6375838926174495
2024-03-26T14:00:32.704Z,7.758389261744966
2024-03-26T14:03:52.944Z,7.496644295302014
2024-03-26T14:07:12.937Z,7.6644295302013425
2024-03-26T14:10:33.008Z,7.476510067114094
2024-03-26T14:13:53.876Z,7.6375838926174495
2024-03-26T14:17:13.647Z,11.315436241610739
2024-03-26T14:20:33.118Z,24.97986577181208
2024-03-26T14:23:53.232Z,14.979865771812081
2024-03-26T14:28:38.667Z,8.78523489932886
2024-03-26T14:31:58.613Z,8.476510067114093
2024-03-26T14:35:18.573Z,7.919463087248322
2024-03-26T14:38:38.953Z,8.436241610738255
2024-03-26T14:42:15.681Z,8.04026845637584
2024-03-26T14:47:41.105Z,9.442953020134228
2024-03-26T14:51:01.080Z,9.583892617449665
2024-03-26T14:54:20.935Z,8.060402684563758
2024-03-26T14:57:42.010Z,9.550335570469798
2024-03-26T15:01:01.580Z,9.369127516778523
2024-03-26T15:04:21.257Z,9.563758389261745
2024-03-26T15:07:41.195Z,9.912751677852349
2024-03-26T15:11:01.335Z,9.624161073825503
2024-03-26T15:14:21.623Z,9.020134228187919
2024-03-26T15:17:41.394Z,8.95973154362416
2024-03-26T15:21:00.954Z,9.644295302013424
2024-03-26T15:24:20.889Z,8.630872483221477
2024-03-26T15:27:41.031Z,8.51006711409396
2024-03-26T15:31:00.705Z,8.187919463087248
2024-03-26T15:34:21.176Z,9.308724832214764
2024-03-26T15:37:41.665Z,10.577181208053691
2024-03-26T15:41:02.039Z,9.879194630872483
2024-03-26T15:44:21.456Z,10.06711409395973
2024-03-26T15:47:53.178Z,11.926174496644295
2024-03-26T15:51:13.271Z,9.724832214765101
2024-03-26T15:54:33.028Z,11.161073825503356
2024-03-26T16:08:31.548Z,11.0
2024-03-26T16:11:51.490Z,11.36241610738255
2024-03-26T16:15:10.971Z,12.355704697986576
2024-03-26T16:18:33.106Z,11.496644295302014
2024-03-26T16:21:52.855Z,11.671140939597315
2024-03-26T16:25:12.931Z,12.234899328859061
2024-03-26T16:28:33.054Z,13.429530201342281
2024-03-26T16:48:54.515Z,14.134228187919463
2024-03-26T16:52:15.000Z,13.691275167785236
2024-03-26T16:59:42.395Z,13.48993288590604
2024-03-26T17:03:02.236Z,14.006711409395972
2024-03-26T17:06:22.227Z,13.456375838926174
2024-03-26T17:09:42.563Z,15.295302013422818
2024-03-26T17:13:02.525Z,16.14765100671141
2024-03-26T17:19:21.381Z,14.06711409395973
2024-03-26T17:22:41.150Z,15.691275167785236
2024-03-26T17:26:01.195Z,16.315436241610737
2024-03-26T17:30:22.161Z,17.416107382550337
2024-03-26T17:33:43.345Z,16.85234899328859
2024-03-26T17:37:03.621Z,17.073825503355703
2024-03-26T17:40:23.270Z,17.19463087248322
2024-03-26T17:45:07.556Z,18.12751677852349
2024-03-26T17:49:56.950Z,16.79194630872483
2024-03-26T17:59:34.647Z,17.221476510067113
2024-03-26T18:03:04.265Z,17.986577181208055
2024-03-26T18:06:36.274Z,18.23489932885906
2024-03-26T18:10:05.084Z,17.91275167785235
2024-03-26T18:14:26.483Z,18.879194630872483
2024-03-26T18:17:47.028Z,19.322147651006713
2024-03-26T18:21:07.100Z,16.892617449664428
2024-03-26T18:24:27.572Z,17.664429530201343
2024-03-26T18:29:03.689Z,17.174496644295303
2024-03-26T18:32:29.551Z,16.7248322147651
2024-03-26T18:35:56.179Z,18.073825503355703
2024-03-26T18:39:16.462Z,17.77181208053691
2024-03-26T18:42:37.235Z,19.436241610738254
2024-03-26T18:45:58.015Z,17.71812080536913
2024-03-26T18:49:18.189Z,21.409395973154364
2024-03-26T18:56:55.216Z,19.48993288590604
2024-03-26T19:08:46.765Z,20.671140939597315
2024-03-26T19:12:06.802Z,20.288590604026847
2024-03-26T19:15:27.677Z,21.812080536912752
2024-03-26T19:18:48.379Z,32.624161073825505
2024-03-26T19:22:08.407Z,28.120805369127517
2024-03-26T19:25:45.202Z,28.026845637583893
2024-03-26T19:29:05.229Z,23.55704697986577
2024-03-26T19:32:26.390Z,22.51006711409396
2024-03-26T19:35:47.195Z,21.476510067114095
2024-03-26T19:39:07.573Z,22.463087248322147
2024-03-26T19:42:28.118Z,20.389261744966444
2024-03-26T19:45:48.608Z,22.463087248322147
2024-03-26T19:58:54.752Z,23.08724832214765
2024-03-26T20:02:14.684Z,21.838926174496645
2024-03-26T20:06:04.851Z,22.140939597315437
2024-03-26T20:09:25.390Z,23.154362416107382
2024-03-26T20:12:45.282Z,23.08724832214765
2024-03-26T20:16:55.908Z,22.436241610738254
2024-03-26T20:20:15.768Z,24.456375838926174
2024-03-26T20:23:36.548Z,23.953020134228186
2024-03-26T20:26:56.380Z,24.395973154362416
2024-03-26T20:30:17.100Z,24.91275167785235
2024-03-26T20:33:55.661Z,25.825503355704697
2024-03-26T20:37:15.820Z,25.93288590604027
2024-03-26T20:40:37.020Z,25.63758389261745
2024-03-26T20:43:56.438Z,26.78523489932886
2024-03-26T20:47:16.516Z,25.93288590604027
2024-03-26T20:50:37.542Z,25.966442953020135
2024-03-26T20:53:57.160Z,25.22818791946309
2024-03-26T20:57:17.139Z,26.0
2024-03-26T21:00:37.291Z,24.86577181208054
2024-03-26T21:03:57.268Z,25.288590604026847
2024-03-26T21:07:17.434Z,25.684563758389263
2024-03-26T21:10:38.528Z,27.55704697986577
2024-03-26T21:13:59.047Z,26.550335570469798
2024-03-26T21:17:57.424Z,25.40268456375839
2024-03-26T21:21:17.413Z,26.993288590604028
2024-03-26T21:24:38.470Z,27.892617449664428
2024-03-26T21:28:03.717Z,26.91275167785235
2024-03-26T21:31:58.501Z,28.80536912751678
2024-03-26T21:35:19.991Z,27.268456375838927
2024-03-26T21:38:40.570Z,27.973154362416107
2024-03-26T21:43:15.134Z,26.201342281879196
2024-03-26T21:47:17.067Z,24.993288590604028
2024-03-26T21:51:59.602Z,27.563758389261746
2024-03-26T21:55:20.860Z,25.583892617449663
2024-03-26T21:58:41.361Z,27.06711409395973
2024-03-26T22:02:01.811Z,26.91275167785235
2024-03-26T22:05:21.900Z,26.496644295302012
2024-03-26T22:08:42.660Z,28.76510067114094
2024-03-26T22:12:03.166Z,30.65771812080537
2024-03-26T22:15:24.428Z,28.83221476510067
2024-03-26T22:19:45.167Z,26.140939597315437
2024-03-26T22:23:05.043Z,24.91946308724832
2024-03-26T22:26:24.530Z,29.91275167785235
2024-03-26T22:29:50.905Z,28.78523489932886
2024-03-26T22:33:11.000Z,30.21476510067114
2024-03-26T22:41:53.778Z,28.25503355704698
2024-03-26T22:45:13.655Z,29.684563758389263
2024-03-26T22:48:34.088Z,29.543624161073826
2024-03-26T22:51:54.625Z,27.563758389261746
2024-03-26T22:55:15.078Z,27.523489932885905
2024-03-26T23:09:58.600Z,28.154362416107382
2024-03-26T23:13:18.546Z,30.181208053691275
2024-03-26T23:18:26.943Z,30.154362416107382
2024-03-26T23:22:04.860Z,29.530201342281877
2024-03-26T23:26:39.972Z,29.449664429530202
2024-03-26T23:30:00.140Z,27.375838926174495
2024-03-26T23:33:19.903Z,27.389261744966444
2024-03-26T23:36:40.254Z,27.28187919463087
2024-03-26T23:40:00.205Z,26.97986577181208
2024-03-26T23:43:20.567Z,27.697986577181208
2024-03-26T23:46:41.170Z,27.838926174496645
2024-03-26T23:50:01.271Z,26.630872483221477
2024-03-26T23:53:20.577Z,28.100671140939596
2024-03-26T23:56:40.348Z,28.76510067114094
